Time;durP1;ratioP1;P1;durP2;ratioP2;P2;SDS_P1;SDS_P2;PMS_P1;PMS_P2;Temp;Humidity;BMP_temperature;BMP_pressure;BME280_temperature;BME280_humidity;BME280_pressure;Samples;Min_cycle;Max_cycle;Signal;HPM_P1;HPM_P2
2021/09/19 00:00:16;;;;;;;4.57;4.18;;;;;;;16.29;73.15;100991.25;5072671;28;20054;-46
2021/09/19 00:02:42;;;;;;;4.40;4.00;;;;;;;16.29;73.25;100999.22;5073354;28;20681;-46
2021/09/19 00:05:09;;;;;;;4.40;4.00;;;;;;;16.26;73.28;100991.31;5072769;28;20027;-46
2021/09/19 00:07:35;;;;;;;4.50;4.10;;;;;;;16.28;73.27;100997.47;5073034;28;20019;-46
2021/09/19 00:10:02;;;;;;;4.60;4.20;;;;;;;16.26;73.15;100988.66;5073055;28;20107;-46
2021/09/19 00:12:28;;;;;;;4.63;4.22;;;;;;;16.27;73.32;100993.06;5038104;28;20036;-46
2021/09/19 00:14:54;;;;;;;4.53;4.13;;;;;;;16.25;73.18;100986.94;5072823;28;20089;-46
2021/09/19 00:17:20;;;;;;;4.30;3.97;;;;;;;16.26;73.26;100983.34;5072810;28;20021;-46
2021/09/19 00:19:46;;;;;;;5.40;4.70;;;;;;;16.25;73.14;100986.94;5072330;28;20036;-46
2021/09/19 00:22:12;;;;;;;4.65;4.25;;;;;;;16.26;73.13;100988.66;5072941;28;20446;-46
2021/09/19 00:24:39;;;;;;;5.45;4.20;;;;;;;16.26;73.07;100985.13;5072755;28;20405;-46
2021/09/19 00:27:04;;;;;;;4.15;3.75;;;;;;;16.25;73.13;100994.91;5072761;28;20013;-46
2021/09/19 00:29:30;;;;;;;4.85;4.15;;;;;;;16.25;73.07;100986.94;5071683;28;20432;-46
2021/09/19 00:31:56;;;;;;;4.43;4.03;;;;;;;16.25;73.17;100980.72;5072833;28;20025;-46
2021/09/19 00:34:22;;;;;;;4.45;4.05;;;;;;;16.26;73.15;100985.13;5072466;28;20677;-46
2021/09/19 00:36:48;;;;;;;4.40;3.72;;;;;;;16.27;73.10;100994.84;5072613;28;20052;-46
2021/09/19 00:39:14;;;;;;;4.40;4.00;;;;;;;16.24;73.10;100986.97;5072451;28;20394;-46
2021/09/19 00:41:40;;;;;;;5.07;4.07;;;;;;;16.25;73.11;100994.03;5072121;28;20024;-46
2021/09/19 00:44:07;;;;;;;3.95;3.55;;;;;;;16.24;73.14;100990.47;5072369;28;20024;-46
2021/09/19 00:46:34;;;;;;;4.57;3.90;;;;;;;16.24;73.19;100989.63;5071334;28;20048;-46
2021/09/19 00:49:00;;;;;;;4.68;4.28;;;;;;;16.23;73.10;100990.53;5053902;28;20021;-46
2021/09/19 00:51:27;;;;;;;5.15;4.70;;;;;;;16.23;72.96;100986.09;5072674;28;20025;-46
2021/09/19 00:53:55;;;;;;;4.95;4.45;;;;;;;16.23;73.15;100987.84;5072087;28;20024;-46
2021/09/19 00:56:24;;;;;;;4.20;3.88;;;;;;;16.22;73.01;100992.34;5072207;28;20078;-46
2021/09/19 00:58:52;;;;;;;4.35;3.95;;;;;;;16.22;73.06;100987.00;5071694;28;20032;-46
2021/09/19 01:01:18;;;;;;;4.45;4.05;;;;;;;16.22;73.06;100995.00;5072224;28;20468;-46
2021/09/19 01:03:44;;;;;;;4.65;4.25;;;;;;;16.22;73.10;100988.78;5072060;28;20550;-46
2021/09/19 01:06:11;;;;;;;5.10;4.57;;;;;;;16.21;73.05;100989.72;5072064;28;20542;-46
2021/09/19 01:08:42;;;;;;;4.43;4.03;;;;;;;16.20;72.98;100988.81;5071971;28;20393;-46
2021/09/19 01:11:13;;;;;;;4.55;3.88;;;;;;;16.21;73.01;100995.03;5071226;28;20036;-46
2021/09/19 01:13:41;;;;;;;4.97;4.57;;;;;;;16.20;73.02;100988.81;5071027;28;20016;-46
2021/09/19 01:16:09;;;;;;;4.85;4.20;;;;;;;16.21;72.99;100990.56;5070622;28;20107;-46
2021/09/19 01:18:35;;;;;;;3.92;3.53;;;;;;;16.19;73.05;100989.75;5070459;28;20031;-46
2021/09/19 01:21:01;;;;;;;4.63;3.53;;;;;;;16.20;72.92;100986.16;5053053;28;20024;-46
2021/09/19 01:23:31;;;;;;;6.72;4.22;;;;;;;16.20;73.02;100988.81;5070778;28;20024;-46
2021/09/19 01:25:57;;;;;;;4.00;3.65;;;;;;;16.20;73.05;100982.66;5070733;28;20024;-46
2021/09/19 01:28:23;;;;;;;4.10;3.67;;;;;;;16.20;72.98;100983.50;5051890;28;20166;-46
2021/09/19 01:30:49;;;;;;;4.35;4.05;;;;;;;16.20;72.99;100983.50;5070849;28;20024;-46
2021/09/19 01:33:15;;;;;;;4.32;3.70;;;;;;;16.20;73.10;100991.47;5052586;28;20036;-47
2021/09/19 01:35:41;;;;;;;5.18;3.97;;;;;;;16.20;73.04;100994.16;5069352;28;20043;-46
2021/09/19 01:38:07;;;;;;;4.57;4.18;;;;;;;16.20;73.02;100993.28;5069630;28;20058;-46
2021/09/19 01:40:33;;;;;;;4.32;3.92;;;;;;;16.19;73.07;100997.72;5070640;28;20514;-46
2021/09/19 01:43:00;;;;;;;4.95;4.53;;;;;;;16.18;72.93;101001.31;5070409;28;20473;-46
2021/09/19 01:45:26;;;;;;;4.38;3.97;;;;;;;16.18;72.97;101001.31;5071434;28;20123;-46
2021/09/19 01:47:53;;;;;;;5.13;4.05;;;;;;;16.19;72.85;101002.16;5070204;28;20494;-46
2021/09/19 01:50:23;;;;;;;4.30;3.90;;;;;;;16.17;73.03;101004.88;5070083;28;20031;-46
2021/09/19 01:52:49;;;;;;;4.05;3.65;;;;;;;16.17;73.01;100999.53;5070343;28;20062;-46
2021/09/19 01:55:15;;;;;;;5.50;4.45;;;;;;;16.19;72.92;100994.19;5070225;28;20540;-46
2021/09/19 01:57:41;;;;;;;5.28;4.18;;;;;;;16.19;72.96;101002.16;5070712;28;20101;-46
2021/09/19 02:00:08;;;;;;;3.88;3.50;;;;;;;16.16;72.96;100993.38;5069812;28;20066;-46
2021/09/19 02:02:34;;;;;;;4.35;3.78;;;;;;;16.17;72.82;100983.56;5070258;28;20031;-46
2021/09/19 02:05:00;;;;;;;4.63;3.88;;;;;;;16.20;73.02;100995.94;5067095;28;20024;-46
2021/09/19 02:07:26;;;;;;;4.32;3.97;;;;;;;16.18;72.92;100989.78;5069891;28;20021;-46
2021/09/19 02:09:52;;;;;;;5.38;4.15;;;;;;;16.17;72.89;100988.91;5070003;28;20153;-46
2021/09/19 02:12:18;;;;;;;4.18;3.78;;;;;;;16.18;72.76;100989.78;5012216;28;1666353;-46
2021/09/19 02:14:44;;;;;;;5.30;4.55;;;;;;;16.18;72.94;100980.03;5070840;28;20023;-46
2021/09/19 02:17:11;;;;;;;4.22;3.88;;;;;;;16.16;72.95;100972.09;5070301;28;20063;-46
2021/09/19 02:19:37;;;;;;;4.35;3.72;;;;;;;16.17;72.96;100972.94;5070388;28;20478;-46
2021/09/19 02:22:06;;;;;;;4.25;3.95;;;;;;;16.17;72.84;100970.28;5070445;28;20066;-46
2021/09/19 02:24:32;;;;;;;4.80;3.72;;;;;;;16.15;72.85;100965.00;5070427;28;20020;-46
2021/09/19 02:26:58;;;;;;;4.88;4.40;;;;;;;16.16;72.78;100966.75;5070778;28;20036;-46
2021/09/19 02:29:24;;;;;;;4.28;3.45;;;;;;;16.17;72.74;100959.63;5070293;28;20055;-46
2021/09/19 02:31:49;;;;;;;4.63;3.97;;;;;;;16.15;72.78;100953.50;5070616;28;20021;-46
2021/09/19 02:34:15;;;;;;;4.45;4.05;;;;;;;16.15;72.90;100958.81;5070119;28;20070;-46
2021/09/19 02:36:41;;;;;;;4.75;4.25;;;;;;;16.15;72.78;100969.47;5070656;28;20451;-46
2021/09/19 02:39:10;;;;;;;4.50;4.13;;;;;;;16.14;72.69;100963.25;5070031;28;20029;-46
2021/09/19 02:41:36;;;;;;;5.57;4.10;;;;;;;16.15;72.70;100962.34;5070261;28;20016;-46
2021/09/19 02:44:03;;;;;;;4.15;3.75;;;;;;;16.14;72.80;100957.09;5069757;28;20538;-46
2021/09/19 02:46:29;;;;;;;4.30;3.90;;;;;;;16.15;72.72;100957.00;5052444;28;20024;-46
2021/09/19 02:48:55;;;;;;;4.18;3.78;;;;;;;16.15;72.66;100956.16;5069572;28;20024;-46
2021/09/19 02:51:21;;;;;;;4.60;4.15;;;;;;;16.14;72.70;100952.63;5070348;28;20021;-46
2021/09/19 02:53:47;;;;;;;6.38;4.53;;;;;;;16.15;72.67;100964.13;5070207;28;20111;-46
2021/09/19 02:56:12;;;;;;;4.50;4.10;;;;;;;16.13;72.81;100960.63;5071268;28;20409;-46
2021/09/19 02:58:38;;;;;;;4.95;4.10;;;;;;;16.13;72.63;100966.84;5069803;28;20052;-46
2021/09/19 03:01:04;;;;;;;6.05;4.10;;;;;;;16.13;72.48;100965.97;5070186;28;20016;-46
2021/09/19 03:03:30;;;;;;;4.15;3.85;;;;;;;16.12;72.71;100969.53;5069451;28;20074;-46
2021/09/19 03:05:56;;;;;;;4.75;4.25;;;;;;;16.13;72.73;100976.59;5071375;28;20452;-46
2021/09/19 03:08:22;;;;;;;4.85;4.35;;;;;;;16.10;72.65;100976.69;5069520;28;20020;-46
2021/09/19 03:10:48;;;;;;;4.30;3.90;;;;;;;16.13;72.69;100976.59;5072654;28;20028;-46
2021/09/19 03:13:14;;;;;;;4.40;4.03;;;;;;;16.12;72.56;100980.19;5058324;28;20020;-47
2021/09/19 03:15:40;;;;;;;4.03;3.72;;;;;;;16.09;72.58;100975.81;5074164;28;20028;-46
2021/09/19 03:18:06;;;;;;;5.05;4.55;;;;;;;16.08;72.76;100973.19;5073619;28;20087;-46
2021/09/19 03:20:32;;;;;;;4.65;4.25;;;;;;;16.08;72.68;100976.75;5073988;28;20111;-46
2021/09/19 03:22:58;;;;;;;4.18;3.78;;;;;;;16.08;72.62;100973.19;5074067;28;20028;-46
2021/09/19 03:25:23;;;;;;;4.72;4.15;;;;;;;16.06;72.74;100975.03;5074062;28;20490;-46
2021/09/19 03:27:50;;;;;;;4.93;4.38;;;;;;;16.07;72.61;100974.13;5073742;28;20012;-46
2021/09/19 03:30:16;;;;;;;4.72;3.80;;;;;;;16.06;72.63;100972.34;5073722;28;20044;-46
2021/09/19 03:32:43;;;;;;;4.45;4.05;;;;;;;16.07;72.58;100971.47;5073619;28;20021;-46
2021/09/19 03:35:10;;;;;;;4.63;4.22;;;;;;;16.08;72.52;100968.78;5073762;28;20074;-46
2021/09/19 03:37:36;;;;;;;5.55;4.78;;;;;;;16.08;72.42;100967.88;5074242;28;20036;-46
2021/09/19 03:40:03;;;;;;;4.65;4.25;;;;;;;16.07;72.58;100968.81;5072598;28;20421;-46
2021/09/19 03:42:28;;;;;;;5.30;3.97;;;;;;;16.06;72.46;100964.38;5072305;28;20025;-46
2021/09/19 03:44:55;;;;;;;4.10;3.80;;;;;;;16.05;72.45;100967.97;5073695;28;20029;-46
2021/09/19 03:47:21;;;;;;;3.80;3.50;;;;;;;16.06;72.36;100969.69;5073011;28;20031;-46
2021/09/19 03:49:47;;;;;;;5.32;4.20;;;;;;;16.06;72.41;100965.25;5070896;28;20032;-47
2021/09/19 03:52:14;;;;;;;4.90;4.40;;;;;;;16.07;72.31;100968.81;5073227;28;20031;-46
2021/09/19 03:54:40;;;;;;;5.13;3.72;;;;;;;16.07;72.35;100972.31;5073566;28;20013;-46
2021/09/19 03:57:05;;;;;;;5.20;4.35;;;;;;;16.06;72.21;100975.91;5052569;28;20073;-46
2021/09/19 03:59:31;;;;;;;4.82;3.92;;;;;;;16.03;72.37;100970.66;5072746;28;20036;-46
2021/09/19 04:01:57;;;;;;;4.72;4.32;;;;;;;16.03;72.29;100971.53;5053500;28;20035;-46
2021/09/19 04:04:23;;;;;;;4.32;3.92;;;;;;;16.05;72.17;100974.16;5063118;28;20029;-46
2021/09/19 04:06:49;;;;;;;4.63;4.22;;;;;;;16.03;72.36;100976.88;5069964;28;20035;-46
2021/09/19 04:09:15;;;;;;;4.32;3.90;;;;;;;16.03;72.16;100976.88;5072691;28;20017;-46
2021/09/19 04:11:41;;;;;;;4.65;4.25;;;;;;;16.03;72.26;100982.19;5073007;28;20347;-46
2021/09/19 04:14:07;;;;;;;4.50;4.03;;;;;;;16.03;72.16;100965.34;5055264;28;20059;-46
2021/09/19 04:16:32;;;;;;;4.78;4.28;;;;;;;16.01;72.33;100975.16;5072786;28;20046;-46
2021/09/19 04:18:59;;;;;;;4.32;3.92;;;;;;;16.01;72.46;100981.34;5072739;28;20048;-46
2021/09/19 04:21:24;;;;;;;4.57;4.18;;;;;;;16.00;72.21;100966.31;5072292;28;20521;-46
2021/09/19 04:23:50;;;;;;;4.47;4.07;;;;;;;16.00;72.21;100974.28;5073699;28;20032;-46
2021/09/19 04:26:16;;;;;;;4.68;4.05;;;;;;;16.01;72.18;100968.03;5070828;28;20020;-46
2021/09/19 04:28:42;;;;;;;4.60;4.20;;;;;;;16.02;72.19;100974.25;5072741;28;20016;-46
2021/09/19 04:31:08;;;;;;;4.63;4.22;;;;;;;16.01;72.12;100973.34;5071981;28;20031;-46
2021/09/19 04:33:34;;;;;;;4.50;4.10;;;;;;;15.99;72.24;100980.53;5072536;28;20048;-46
2021/09/19 04:36:00;;;;;;;5.05;4.00;;;;;;;16.00;71.96;100981.38;5072662;28;20021;-46
2021/09/19 04:38:25;;;;;;;4.30;3.90;;;;;;;15.99;72.28;100984.97;5071903;28;20151;-46
2021/09/19 04:40:51;;;;;;;4.53;4.10;;;;;;;15.96;72.28;100977.94;5072472;28;20017;-46
2021/09/19 04:43:17;;;;;;;4.75;3.97;;;;;;;15.98;72.17;100989.44;5072539;28;20478;-46
2021/09/19 04:45:43;;;;;;;4.22;3.92;;;;;;;15.98;72.21;100984.09;5069675;28;20024;-46
2021/09/19 04:48:09;;;;;;;5.75;4.60;;;;;;;15.98;72.30;100991.22;5071785;28;20023;-46
2021/09/19 04:50:35;;;;;;;4.50;4.10;;;;;;;15.96;72.15;100991.25;5072196;28;20024;-46
2021/09/19 04:53:01;;;;;;;4.60;4.20;;;;;;;15.95;72.20;100989.50;5072354;28;20040;-46
2021/09/19 04:55:27;;;;;;;4.28;3.92;;;;;;;15.95;72.24;100992.16;5070508;28;20032;-46
2021/09/19 04:57:52;;;;;;;5.93;4.70;;;;;;;15.95;72.19;100983.25;5072007;28;20024;-46
2021/09/19 05:00:18;;;;;;;4.25;3.90;;;;;;;15.96;72.24;100985.03;5072003;28;20026;-46
2021/09/19 05:02:44;;;;;;;4.32;3.92;;;;;;;15.95;72.16;100993.91;5071569;28;20409;-46
2021/09/19 05:05:10;;;;;;;4.90;4.28;;;;;;;15.95;72.18;100989.50;5071549;28;20036;-46
2021/09/19 05:07:36;;;;;;;5.05;4.55;;;;;;;15.93;72.23;100991.28;5071957;28;20024;-46
2021/09/19 05:10:03;;;;;;;5.15;4.53;;;;;;;15.92;72.21;100992.22;5071614;28;20021;-46
2021/09/19 05:12:29;;;;;;;4.78;4.00;;;;;;;15.93;72.21;100996.59;5051784;28;20027;-46
2021/09/19 05:14:55;;;;;;;5.00;4.10;;;;;;;15.93;72.14;101001.94;5072041;28;20744;-46
2021/09/19 05:17:21;;;;;;;4.13;3.72;;;;;;;15.91;72.20;101009.09;5071334;28;20529;-46
2021/09/19 05:19:47;;;;;;;5.22;4.22;;;;;;;15.90;72.00;101002.88;5071461;28;20032;-46
2021/09/19 05:22:13;;;;;;;4.28;3.88;;;;;;;15.91;72.08;101001.97;5072242;28;20020;-46
2021/09/19 05:24:39;;;;;;;4.38;3.97;;;;;;;15.91;72.17;100998.44;5071308;28;20098;-46
2021/09/19 05:27:05;;;;;;;4.43;4.03;;;;;;;15.89;72.15;100993.16;5071479;28;20020;-46
2021/09/19 05:29:31;;;;;;;4.40;4.00;;;;;;;15.90;72.13;100994.91;5053319;28;20027;-46
2021/09/19 05:31:56;;;;;;;5.00;4.50;;;;;;;15.90;72.00;100991.38;5070637;28;20444;-46
2021/09/19 05:34:22;;;;;;;4.88;4.40;;;;;;;15.90;72.13;100991.38;5071196;28;20139;-46
2021/09/19 05:36:48;;;;;;;4.32;3.92;;;;;;;15.89;72.00;101002.91;5071397;28;20501;-46
2021/09/19 05:39:14;;;;;;;4.10;3.70;;;;;;;15.87;72.13;100991.47;5071039;28;20023;-46
2021/09/19 05:41:40;;;;;;;5.20;3.90;;;;;;;15.87;72.18;100991.47;5070991;28;20482;-46
2021/09/19 05:44:06;;;;;;;4.28;3.90;;;;;;;15.86;72.08;100987.91;5071095;28;20523;-46
2021/09/19 05:46:32;;;;;;;5.43;3.85;;;;;;;15.87;71.95;100986.16;5070939;28;20025;-46
2021/09/19 05:48:59;;;;;;;4.47;4.05;;;;;;;15.86;72.03;100993.25;5052810;28;20111;-46
2021/09/19 05:51:28;;;;;;;4.10;3.70;;;;;;;15.86;71.89;100995.03;5071842;28;20046;-46
2021/09/19 05:53:54;;;;;;;4.45;3.88;;;;;;;15.86;72.02;100987.03;5068449;28;20043;-46
2021/09/19 05:56:20;;;;;;;5.32;4.57;;;;;;;15.85;71.99;100990.63;5070747;28;20398;-46
2021/09/19 05:58:45;;;;;;;4.65;4.22;;;;;;;15.84;71.92;100992.41;5070804;28;20028;-46
2021/09/19 06:01:11;;;;;;;4.63;4.22;;;;;;;15.83;71.89;100985.34;5070281;28;20025;-46
2021/09/19 06:03:38;;;;;;;4.55;4.15;;;;;;;15.83;72.24;100984.44;5070980;28;20429;-46
2021/09/19 06:06:04;;;;;;;4.68;4.18;;;;;;;15.84;71.94;100980.91;5070412;28;20109;-46
2021/09/19 06:08:30;;;;;;;4.32;3.92;;;;;;;15.82;71.84;100983.59;5070466;28;20124;-46
2021/09/19 06:10:56;;;;;;;4.55;4.15;;;;;;;15.82;71.96;100988.91;5070295;28;20533;-46
2021/09/19 06:13:21;;;;;;;4.18;3.78;;;;;;;15.82;71.86;100988.03;5070923;28;20032;-46
2021/09/19 06:15:47;;;;;;;4.40;3.70;;;;;;;15.82;71.75;100990.69;5070214;28;20020;-46
2021/09/19 06:18:13;;;;;;;4.32;3.92;;;;;;;15.82;71.71;100990.69;5070100;28;20368;-46
2021/09/19 06:20:40;;;;;;;4.32;3.70;;;;;;;15.81;71.85;100986.31;5070192;28;20155;-46
2021/09/19 06:23:06;;;;;;;4.15;3.80;;;;;;;15.81;71.74;100987.19;5070422;28;20071;-46
2021/09/19 06:25:32;;;;;;;3.70;3.40;;;;;;;15.80;71.70;100979.25;5070103;28;20546;-46
2021/09/19 06:27:58;;;;;;;3.92;3.53;;;;;;;15.80;71.78;100981.91;5070193;28;20146;-46
2021/09/19 06:30:25;;;;;;;3.90;3.60;;;;;;;15.80;71.69;100984.56;5070026;28;20012;-46
2021/09/19 06:32:52;;;;;;;5.63;4.00;;;;;;;15.77;71.84;100982.81;5067918;28;20020;-46
2021/09/19 06:35:18;;;;;;;4.60;4.03;;;;;;;15.77;71.54;100983.72;5069399;28;20516;-46
2021/09/19 06:37:44;;;;;;;5.63;4.00;;;;;;;15.78;71.60;100987.25;5069777;28;20031;-46
2021/09/19 06:40:11;;;;;;;4.15;3.75;;;;;;;15.76;71.80;100981.97;5070210;28;20648;-46
2021/09/19 06:42:37;;;;;;;4.45;3.97;;;;;;;15.77;71.72;100990.81;5067885;28;20031;-46
2021/09/19 06:45:03;;;;;;;4.43;4.03;;;;;;;15.75;71.63;100990.88;5069625;28;20020;-46
2021/09/19 06:47:29;;;;;;;5.43;3.90;;;;;;;15.76;71.52;100989.06;5069512;28;20048;-46
2021/09/19 06:49:55;;;;;;;3.88;3.58;;;;;;;15.75;71.57;100972.25;5070121;28;20044;-46
2021/09/19 06:52:21;;;;;;;4.57;3.72;;;;;;;15.75;71.53;100976.69;5071024;28;20025;-46
2021/09/19 06:54:47;;;;;;;4.35;3.95;;;;;;;15.74;71.64;100981.13;5069782;28;20063;-46
2021/09/19 06:57:13;;;;;;;3.70;3.40;;;;;;;15.74;71.64;100985.59;5069955;28;20457;-46
2021/09/19 06:59:39;;;;;;;3.90;3.50;;;;;;;15.74;71.66;100988.25;5069414;28;20048;-46
2021/09/19 07:02:05;;;;;;;4.35;3.95;;;;;;;15.74;71.63;100990.91;5069960;28;20095;-46
2021/09/19 07:04:31;;;;;;;4.85;4.38;;;;;;;15.72;71.50;100982.09;5073906;28;20051;-46
2021/09/19 07:06:57;;;;;;;4.50;4.10;;;;;;;15.72;71.57;100988.28;5070354;28;20494;-46
2021/09/19 07:09:23;;;;;;;4.63;3.90;;;;;;;15.71;71.56;100986.50;5069547;28;20052;-46
2021/09/19 07:11:49;;;;;;;4.70;4.22;;;;;;;15.71;71.53;100986.50;5067250;28;20070;-46
2021/09/19 07:14:14;;;;;;;4.43;3.95;;;;;;;15.70;71.67;100990.09;5071281;28;20025;-46
2021/09/19 07:16:40;;;;;;;6.10;4.07;;;;;;;15.71;71.63;100994.50;5052258;28;20062;-46
2021/09/19 07:19:06;;;;;;;5.97;3.75;;;;;;;15.70;71.55;100991.91;5069738;28;20035;-46
2021/09/19 07:21:32;;;;;;;4.15;3.75;;;;;;;15.70;71.54;100995.41;5069550;28;20506;-46
2021/09/19 07:23:58;;;;;;;3.83;3.53;;;;;;;15.71;71.63;100993.63;5069448;28;20099;-46
2021/09/19 07:26:24;;;;;;;4.65;3.60;;;;;;;15.70;71.41;100992.75;5068965;28;20035;-46
2021/09/19 07:28:50;;;;;;;4.22;3.83;;;;;;;15.70;71.50;100991.91;5069344;28;20389;-46
2021/09/19 07:31:16;;;;;;;3.83;3.53;;;;;;;15.68;71.56;100996.38;5069724;28;20024;-46
2021/09/19 07:33:42;;;;;;;4.00;3.60;;;;;;;15.68;71.47;100991.94;5069643;28;20484;-46
2021/09/19 07:36:08;;;;;;;4.60;4.10;;;;;;;15.69;71.38;100996.34;5069112;28;20119;-46
2021/09/19 07:38:35;;;;;;;4.70;4.00;;;;;;;15.67;71.39;100998.16;5069261;28;20021;-46
2021/09/19 07:41:01;;;;;;;5.43;4.30;;;;;;;15.69;71.51;101000.78;5069673;28;20032;-46
2021/09/19 07:43:27;;;;;;;4.28;3.88;;;;;;;15.68;71.33;100999.03;5069551;28;20032;-46
2021/09/19 07:45:53;;;;;;;5.43;3.83;;;;;;;15.67;71.42;101000.81;5069404;28;20017;-46
2021/09/19 07:48:21;;;;;;;4.93;3.88;;;;;;;15.68;71.39;101007.00;5069431;28;20024;-46
2021/09/19 07:50:47;;;;;;;4.40;4.00;;;;;;;15.65;71.67;101013.28;5066838;28;20016;-46
2021/09/19 07:53:13;;;;;;;4.05;3.70;;;;;;;15.66;71.52;101017.69;5069468;28;20024;-46
2021/09/19 07:55:39;;;;;;;4.13;3.72;;;;;;;15.65;71.48;101018.59;5070343;28;20394;-46
2021/09/19 07:58:05;;;;;;;4.40;4.00;;;;;;;15.65;71.31;101022.09;5072416;28;20024;-46
2021/09/19 08:00:31;;;;;;;4.97;4.47;;;;;;;15.65;71.35;101018.59;5055187;28;20021;-46
2021/09/19 08:02:57;;;;;;;5.55;4.35;;;;;;;15.64;71.43;101016.88;5073396;28;20052;-46
2021/09/19 08:05:23;;;;;;;3.88;3.47;;;;;;;15.65;71.31;101018.59;5072692;28;20040;-46
2021/09/19 08:07:49;;;;;;;5.78;3.97;;;;;;;15.65;71.42;101021.25;5072758;28;20108;-46
2021/09/19 08:10:16;;;;;;;5.13;4.07;;;;;;;15.64;71.40;101027.50;5054063;28;20031;-46
2021/09/19 08:12:46;;;;;;;4.13;3.72;;;;;;;15.62;71.15;101029.31;5072550;28;20050;-46
2021/09/19 08:15:13;;;;;;;6.10;4.60;;;;;;;15.62;71.28;101030.19;5072854;28;20534;-46
2021/09/19 08:17:39;;;;;;;4.53;4.05;;;;;;;15.62;71.38;101039.94;5072484;28;20173;-46
2021/09/19 08:20:06;;;;;;;4.90;4.38;;;;;;;15.62;71.21;101039.94;5072418;28;20194;-46
2021/09/19 08:22:32;;;;;;;4.22;3.75;;;;;;;15.61;71.24;101040.84;5070053;28;20024;-46
2021/09/19 08:25:00;;;;;;;4.38;3.88;;;;;;;15.62;71.20;101040.81;5072780;28;20382;-46
2021/09/19 08:27:27;;;;;;;4.60;4.20;;;;;;;15.61;71.26;101038.19;5072219;28;20024;-46
2021/09/19 08:29:52;;;;;;;4.90;4.32;;;;;;;15.60;71.25;101037.31;5074451;28;20020;-46
2021/09/19 08:32:18;;;;;;;4.30;3.80;;;;;;;15.60;71.17;101041.75;5072892;28;20505;-46
2021/09/19 08:34:44;;;;;;;4.88;4.03;;;;;;;15.59;70.97;101046.22;5072414;28;20510;-46
2021/09/19 08:37:10;;;;;;;5.90;4.63;;;;;;;15.60;71.00;101044.41;5072254;28;20021;-46
2021/09/19 08:39:36;;;;;;;4.43;3.83;;;;;;;15.60;71.08;101041.75;5071977;28;20025;-46
2021/09/19 08:42:02;;;;;;;4.15;3.75;;;;;;;15.59;70.99;101040.91;5072309;28;20025;-46
2021/09/19 08:44:28;;;;;;;4.68;4.28;;;;;;;15.58;71.10;101043.59;5072053;28;20617;-46
2021/09/19 08:46:54;;;;;;;4.57;3.85;;;;;;;15.59;71.02;101040.00;5054310;28;20031;-46
2021/09/19 08:49:19;;;;;;;4.50;4.07;;;;;;;15.58;70.97;101048.91;5071356;28;20028;-46
2021/09/19 08:51:46;;;;;;;5.43;4.53;;;;;;;15.57;70.88;101036.53;5069873;28;20605;-46
2021/09/19 08:54:12;;;;;;;4.20;3.80;;;;;;;15.56;71.15;101045.41;5071880;28;20017;-46
2021/09/19 08:56:37;;;;;;;3.80;3.40;;;;;;;15.56;71.01;101043.63;5072009;28;20032;-46
2021/09/19 08:59:03;;;;;;;4.03;3.63;;;;;;;15.57;70.82;101041.84;5071316;28;20024;-46
2021/09/19 09:01:29;;;;;;;4.05;3.47;;;;;;;15.58;71.02;101040.94;5072069;28;20017;-46
2021/09/19 09:04:05;;;;;;;4.55;3.60;;;;;;;15.57;70.82;101045.34;5071432;28;20027;-46
2021/09/19 09:06:39;;;;;;;4.00;3.58;;;;;;;15.56;70.92;101048.06;5053328;28;20039;-46
2021/09/19 09:09:15;;;;;;;4.07;3.53;;;;;;;15.55;70.79;101043.66;5071290;28;20024;-46
2021/09/19 09:11:43;;;;;;;3.63;3.28;;;;;;;15.55;70.76;101048.97;5068764;28;20024;-46
2021/09/19 09:14:19;;;;;;;4.32;3.67;;;;;;;15.55;70.92;101044.53;5071640;28;20020;-46
2021/09/19 09:16:49;;;;;;;4.50;4.10;;;;;;;15.54;70.82;101047.22;5068920;28;20025;-46
2021/09/19 09:19:15;;;;;;;4.20;3.67;;;;;;;15.55;70.79;101056.94;5071171;28;20119;-46
2021/09/19 09:21:41;;;;;;;3.92;3.53;;;;;;;15.54;70.74;101056.06;5073805;28;20030;-46
2021/09/19 09:24:08;;;;;;;4.07;3.67;;;;;;;15.55;70.84;101054.28;5070979;28;20466;-46
2021/09/19 09:26:38;;;;;;;3.42;3.13;;;;;;;15.52;70.76;101066.75;5071160;28;20035;-46
2021/09/19 09:29:12;;;;;;;4.72;3.85;;;;;;;15.54;70.71;101060.53;5068554;28;20104;-46
2021/09/19 09:31:47;;;;;;;4.07;3.58;;;;;;;15.55;70.62;101054.28;5069060;28;20021;-46
2021/09/19 09:34:18;;;;;;;4.03;3.63;;;;;;;15.54;70.55;101053.41;5069586;28;20421;-46
2021/09/19 09:36:48;;;;;;;4.22;3.80;;;;;;;15.51;70.79;101048.19;5068828;28;20549;-46
2021/09/19 09:39:33;;;;;;;3.75;3.45;;;;;;;15.54;70.61;101058.72;5069036;28;20021;-46
2021/09/19 09:42:07;;;;;;;4.72;3.42;;;;;;;15.52;70.67;101050.81;5070193;28;20017;-46
2021/09/19 09:44:48;;;;;;;3.85;3.40;;;;;;;15.52;70.69;101053.47;5070762;28;20056;-46
2021/09/19 09:47:18;;;;;;;3.83;3.53;;;;;;;15.52;70.73;101056.13;5071746;28;20028;-46
2021/09/19 09:49:52;;;;;;;3.47;3.17;;;;;;;15.51;70.69;101057.00;5069905;28;20030;-46
2021/09/19 09:52:27;;;;;;;4.40;3.65;;;;;;;15.49;70.62;101050.88;5071176;28;20119;-46
2021/09/19 09:54:55;;;;;;;3.88;3.53;;;;;;;15.51;70.64;101054.34;5068473;28;20021;-46
2021/09/19 09:57:36;;;;;;;4.05;3.55;;;;;;;15.51;70.58;101054.34;5069991;28;20052;-46
2021/09/19 10:00:09;;;;;;;5.07;3.92;;;;;;;15.51;70.68;101053.50;5068490;28;20431;-46
2021/09/19 10:02:40;;;;;;;4.05;3.63;;;;;;;15.50;70.55;101060.59;5071083;28;20082;-46
2021/09/19 10:05:06;;;;;;;;;;;;;;;15.52;70.43;101056.13;5069236;28;20012;-46
2021/09/19 10:07:34;;;;;;;3.88;3.10;;;;;;;15.48;70.50;101053.56;5070348;28;20038;-46
2021/09/19 10:10:02;;;;;;;3.67;3.38;;;;;;;15.47;70.51;101047.38;5070517;28;20029;-46
2021/09/19 10:12:27;;;;;;;4.07;3.58;;;;;;;15.48;70.59;101054.41;5069522;28;20107;-46
2021/09/19 10:14:54;;;;;;;3.22;2.92;;;;;;;15.48;70.51;101056.22;5070877;28;20116;-46
2021/09/19 10:17:22;;;;;;;3.55;3.25;;;;;;;15.48;70.53;101053.56;5069837;28;20047;-46
2021/09/19 10:19:49;;;;;;;3.55;3.20;;;;;;;15.49;70.45;101050.88;5069255;28;21354;-46
2021/09/19 10:22:22;;;;;;;3.50;3.20;;;;;;;15.48;70.58;101046.44;5070299;28;20028;-46
2021/09/19 10:24:47;;;;;;;3.30;3.00;;;;;;;15.47;70.44;101050.03;5070478;28;20494;-46
2021/09/19 10:27:22;;;;;;;3.28;2.97;;;;;;;15.48;70.58;101049.09;5070037;28;20103;-46
2021/09/19 10:29:49;;;;;;;4.20;3.80;;;;;;;15.49;70.40;101050.88;5070187;28;20027;-46
2021/09/19 10:32:43;;;;;;;4.03;3.28;;;;;;;15.47;70.56;101047.38;5070253;28;20032;-46
2021/09/19 10:35:18;;;;;;;3.50;3.20;;;;;;;15.48;70.40;101050.91;5067818;28;20009;-46
2021/09/19 10:37:54;;;;;;;3.88;3.53;;;;;;;15.48;70.34;101045.59;5067717;28;20035;-46
2021/09/19 10:40:40;;;;;;;3.42;3.05;;;;;;;15.49;70.27;101044.66;5069135;28;20028;-46
2021/09/19 10:43:16;;;;;;;3.88;3.15;;;;;;;15.48;70.29;101046.44;5070150;28;20060;-46
2021/09/19 10:45:44;;;;;;;3.08;2.88;;;;;;;15.48;70.37;101045.59;5067724;28;20070;-46
2021/09/19 10:48:13;;;;;;;4.40;3.35;;;;;;;15.48;70.30;101038.47;5069339;28;20044;-46
2021/09/19 10:50:40;;;;;;;3.20;2.90;;;;;;;15.49;70.42;101047.34;5069687;28;20043;-46
2021/09/19 10:53:28;;;;;;;3.75;2.90;;;;;;;15.48;70.29;101040.28;5069999;28;20513;-46
2021/09/19 10:55:58;;;;;;;3.25;3.03;;;;;;;15.49;70.25;101045.56;5067688;28;20079;-46
2021/09/19 10:58:34;;;;;;;3.72;3.35;;;;;;;15.48;70.38;101043.78;5069865;28;20029;-45
2021/09/19 11:01:17;;;;;;;3.33;3.03;;;;;;;15.48;70.36;101046.44;5051944;28;20078;-46
2021/09/19 11:03:45;;;;;;;4.35;3.22;;;;;;;15.47;70.20;101042.03;5069611;28;20143;-47
2021/09/19 11:06:29;;;;;;;3.95;3.15;;;;;;;15.47;70.20;101042.03;5072333;28;20093;-46
2021/09/19 11:08:55;;;;;;;3.88;3.20;;;;;;;15.47;70.31;101034.06;5068599;28;20363;-46
2021/09/19 11:11:23;;;;;;;3.50;3.20;;;;;;;15.47;70.12;101035.88;5051492;28;20103;-46
2021/09/19 11:13:59;;;;;;;3.67;3.38;;;;;;;15.45;70.22;101033.25;5070076;28;20048;-46
2021/09/19 11:16:34;;;;;;;4.03;3.63;;;;;;;15.47;70.14;101031.41;5070234;28;20051;-46
2021/09/19 11:19:06;;;;;;;3.70;2.90;;;;;;;15.48;70.14;101032.31;5050617;28;20073;-46
2021/09/19 11:21:39;;;;;;;3.15;2.85;;;;;;;15.48;70.02;101026.97;5068597;28;20020;-46
2021/09/19 11:24:11;;;;;;;3.22;2.90;;;;;;;15.46;69.95;101027.03;5069573;28;20445;-46